sensor_id;sensor_type;location;lat;lon;timestamp;temperature;humidity
7206;DHT22;3644;53.480;10.004;2022-08-25T00:00:33;22.00;99.90
7206;DHT22;3644;53.480;10.004;2022-08-25T00:02:59;21.90;99.90
7206;DHT22;3644;53.480;10.004;2022-08-25T00:05:28;21.90;99.90
7206;DHT22;3644;53.480;10.004;2022-08-25T00:07:54;21.90;99.90
7206;DHT22;3644;53.480;10.004;2022-08-25T00:10:19;21.80;99.90
7206;DHT22;3644;53.480;10.004;2022-08-25T00:12:45;21.70;99.90
7206;DHT22;3644;53.480;10.004;2022-08-25T00:15:11;21.80;99.90
7206;DHT22;3644;53.480;10.004;2022-08-25T00:17:37;21.80;99.90
7206;DHT22;3644;53.480;10.004;2022-08-25T00:20:04;21.80;99.90
7206;DHT22;3644;53.480;10.004;2022-08-25T00:22:30;21.80;99.90
7206;DHT22;3644;53.480;10.004;2022-08-25T00:24:55;21.80;99.90
7206;DHT22;3644;53.480;10.004;2022-08-25T00:27:21;21.80;99.90
7206;DHT22;3644;53.480;10.004;2022-08-25T00:29:46;21.80;99.90
7206;DHT22;3644;53.480;10.004;2022-08-25T00:32:12;21.80;99.90
7206;DHT22;3644;53.480;10.004;2022-08-25T00:34:38;21.70;99.90
7206;DHT22;3644;53.480;10.004;2022-08-25T00:37:05;21.60;99.90
7206;DHT22;3644;53.480;10.004;2022-08-25T00:39:33;21.60;99.90
7206;DHT22;3644;53.480;10.004;2022-08-25T00:42:00;21.60;99.90
7206;DHT22;3644;53.480;10.004;2022-08-25T00:44:27;21.50;99.90
7206;DHT22;3644;53.480;10.004;2022-08-25T00:46:55;21.60;99.90
7206;DHT22;3644;53.480;10.004;2022-08-25T00:49:30;21.50;99.90
7206;DHT22;3644;53.480;10.004;2022-08-25T00:52:18;21.60;99.90
7206;DHT22;3644;53.480;10.004;2022-08-25T00:54:54;21.50;99.90
7206;DHT22;3644;53.480;10.004;2022-08-25T00:57:25;21.50;99.90
7206;DHT22;3644;53.480;10.004;2022-08-25T00:59:52;21.50;99.90
7206;DHT22;3644;53.480;10.004;2022-08-25T01:02:17;21.50;99.90
7206;DHT22;3644;53.480;10.004;2022-08-25T01:04:44;21.40;99.90
7206;DHT22;3644;53.480;10.004;2022-08-25T01:07:11;21.50;99.90
7206;DHT22;3644;53.480;10.004;2022-08-25T01:09:37;21.50;99.90
7206;DHT22;3644;53.480;10.004;2022-08-25T01:12:03;21.40;99.90
7206;DHT22;3644;53.480;10.004;2022-08-25T01:14:30;21.30;99.90
7206;DHT22;3644;53.480;10.004;2022-08-25T01:16:57;21.30;99.90
7206;DHT22;3644;53.480;10.004;2022-08-25T01:19:24;21.30;99.90
7206;DHT22;3644;53.480;10.004;2022-08-25T01:21:52;21.20;99.90
7206;DHT22;3644;53.480;10.004;2022-08-25T01:24:23;21.20;99.90
7206;DHT22;3644;53.480;10.004;2022-08-25T01:26:50;21.30;99.90
7206;DHT22;3644;53.480;10.004;2022-08-25T01:29:16;21.10;99.90
7206;DHT22;3644;53.480;10.004;2022-08-25T01:31:57;21.20;99.90
7206;DHT22;3644;53.480;10.004;2022-08-25T01:34:25;21.20;99.90
7206;DHT22;3644;53.480;10.004;2022-08-25T01:36:51;21.10;99.90
7206;DHT22;3644;53.480;10.004;2022-08-25T01:39:17;21.10;99.90
7206;DHT22;3644;53.480;10.004;2022-08-25T01:42:03;21.10;99.90
7206;DHT22;3644;53.480;10.004;2022-08-25T01:44:43;21.10;99.90
7206;DHT22;3644;53.480;10.004;2022-08-25T01:47:10;21.00;99.90
7206;DHT22;3644;53.480;10.004;2022-08-25T01:49:36;21.00;99.90
7206;DHT22;3644;53.480;10.004;2022-08-25T01:54:50;20.90;99.90
7206;DHT22;3644;53.480;10.004;2022-08-25T01:57:16;20.80;99.90
7206;DHT22;3644;53.480;10.004;2022-08-25T01:59:41;20.80;99.90
7206;DHT22;3644;53.480;10.004;2022-08-25T02:02:07;20.90;99.90
7206;DHT22;3644;53.480;10.004;2022-08-25T02:04:33;20.80;99.90
7206;DHT22;3644;53.480;10.004;2022-08-25T02:07:00;20.80;99.90
7206;DHT22;3644;53.480;10.004;2022-08-25T02:09:26;20.80;99.90
7206;DHT22;3644;53.480;10.004;2022-08-25T02:11:52;20.80;99.90
7206;DHT22;3644;53.480;10.004;2022-08-25T02:14:17;20.80;99.90
7206;DHT22;3644;53.480;10.004;2022-08-25T02:16:46;20.80;99.90
7206;DHT22;3644;53.480;10.004;2022-08-25T02:19:13;20.80;99.90
7206;DHT22;3644;53.480;10.004;2022-08-25T02:21:38;20.80;99.90
7206;DHT22;3644;53.480;10.004;2022-08-25T02:24:05;20.80;99.90
7206;DHT22;3644;53.480;10.004;2022-08-25T02:26:31;20.80;99.90
7206;DHT22;3644;53.480;10.004;2022-08-25T02:28:57;20.70;99.90
7206;DHT22;3644;53.480;10.004;2022-08-25T02:31:24;20.80;99.90
7206;DHT22;3644;53.480;10.004;2022-08-25T02:33:50;20.70;99.90
7206;DHT22;3644;53.480;10.004;2022-08-25T02:36:16;20.70;99.90
7206;DHT22;3644;53.480;10.004;2022-08-25T02:38:42;20.70;99.90
7206;DHT22;3644;53.480;10.004;2022-08-25T02:41:16;20.60;99.90
7206;DHT22;3644;53.480;10.004;2022-08-25T02:43:43;20.70;99.90
7206;DHT22;3644;53.480;10.004;2022-08-25T02:46:10;20.60;99.90
7206;DHT22;3644;53.480;10.004;2022-08-25T02:48:36;20.60;99.90
7206;DHT22;3644;53.480;10.004;2022-08-25T02:51:02;20.60;99.90
7206;DHT22;3644;53.480;10.004;2022-08-25T02:53:28;20.60;99.90
7206;DHT22;3644;53.480;10.004;2022-08-25T02:55:54;20.60;99.90
7206;DHT22;3644;53.480;10.004;2022-08-25T02:58:20;20.60;99.90
7206;DHT22;3644;53.480;10.004;2022-08-25T03:00:47;20.50;99.90
7206;DHT22;3644;53.480;10.004;2022-08-25T03:03:13;20.50;99.90
7206;DHT22;3644;53.480;10.004;2022-08-25T03:05:39;20.50;99.90
7206;DHT22;3644;53.480;10.004;2022-08-25T03:08:06;20.40;99.90
7206;DHT22;3644;53.480;10.004;2022-08-25T03:10:32;20.50;99.90
7206;DHT22;3644;53.480;10.004;2022-08-25T03:12:57;20.40;99.90
7206;DHT22;3644;53.480;10.004;2022-08-25T03:15:23;20.50;99.90
7206;DHT22;3644;53.480;10.004;2022-08-25T03:17:52;20.40;99.90
7206;DHT22;3644;53.480;10.004;2022-08-25T03:20:19;20.40;99.90
7206;DHT22;3644;53.480;10.004;2022-08-25T03:22:45;20.40;99.90
7206;DHT22;3644;53.480;10.004;2022-08-25T03:25:11;20.40;99.90
7206;DHT22;3644;53.480;10.004;2022-08-25T03:27:55;20.40;99.90
7206;DHT22;3644;53.480;10.004;2022-08-25T03:30:21;18.50;99.90
7206;DHT22;3644;53.480;10.004;2022-08-25T03:32:46;20.30;99.90
7206;DHT22;3644;53.480;10.004;2022-08-25T03:35:12;20.30;99.90
7206;DHT22;3644;53.480;10.004;2022-08-25T03:37:38;20.30;99.90
7206;DHT22;3644;53.480;10.004;2022-08-25T03:40:07;20.20;99.90
7206;DHT22;3644;53.480;10.004;2022-08-25T03:42:34;20.20;99.90
7206;DHT22;3644;53.480;10.004;2022-08-25T03:45:02;20.20;99.90
7206;DHT22;3644;53.480;10.004;2022-08-25T03:47:28;20.20;99.90
7206;DHT22;3644;53.480;10.004;2022-08-25T03:49:55;20.20;99.90
7206;DHT22;3644;53.480;10.004;2022-08-25T03:52:20;20.20;99.90
7206;DHT22;3644;53.480;10.004;2022-08-25T03:54:46;20.20;99.90
7206;DHT22;3644;53.480;10.004;2022-08-25T03:57:12;20.20;99.90
7206;DHT22;3644;53.480;10.004;2022-08-25T03:59:37;20.10;99.90
7206;DHT22;3644;53.480;10.004;2022-08-25T04:02:04;20.10;99.90
7206;DHT22;3644;53.480;10.004;2022-08-25T04:04:30;20.10;99.90
7206;DHT22;3644;53.480;10.004;2022-08-25T04:06:55;20.10;99.90
7206;DHT22;3644;53.480;10.004;2022-08-25T04:09:22;20.10;99.90
7206;DHT22;3644;53.480;10.004;2022-08-25T04:11:47;20.00;99.90
7206;DHT22;3644;53.480;10.004;2022-08-25T04:14:14;20.10;99.90
7206;DHT22;3644;53.480;10.004;2022-08-25T04:16:39;20.00;99.90
7206;DHT22;3644;53.480;10.004;2022-08-25T04:19:06;19.90;99.90
7206;DHT22;3644;53.480;10.004;2022-08-25T04:21:34;19.90;99.90
7206;DHT22;3644;53.480;10.004;2022-08-25T04:23:59;19.90;99.90
7206;DHT22;3644;53.480;10.004;2022-08-25T04:26:46;20.00;99.90
7206;DHT22;3644;53.480;10.004;2022-08-25T04:29:14;19.90;99.90
7206;DHT22;3644;53.480;10.004;2022-08-25T04:31:43;19.90;99.90
7206;DHT22;3644;53.480;10.004;2022-08-25T04:34:11;19.90;99.90
7206;DHT22;3644;53.480;10.004;2022-08-25T04:36:36;19.90;99.90
7206;DHT22;3644;53.480;10.004;2022-08-25T04:39:02;19.90;99.90
7206;DHT22;3644;53.480;10.004;2022-08-25T04:41:28;19.90;99.90
7206;DHT22;3644;53.480;10.004;2022-08-25T04:43:57;19.90;99.90
7206;DHT22;3644;53.480;10.004;2022-08-25T04:46:26;19.90;99.90
7206;DHT22;3644;53.480;10.004;2022-08-25T04:48:53;19.90;99.90
7206;DHT22;3644;53.480;10.004;2022-08-25T04:51:22;19.90;99.90
7206;DHT22;3644;53.480;10.004;2022-08-25T04:53:49;19.90;99.90
7206;DHT22;3644;53.480;10.004;2022-08-25T04:56:17;20.00;99.90
7206;DHT22;3644;53.480;10.004;2022-08-25T04:58:43;19.90;99.90
7206;DHT22;3644;53.480;10.004;2022-08-25T05:01:13;20.00;99.90
7206;DHT22;3644;53.480;10.004;2022-08-25T05:03:43;20.10;99.90
7206;DHT22;3644;53.480;10.004;2022-08-25T05:06:10;20.20;99.90
7206;DHT22;3644;53.480;10.004;2022-08-25T05:08:36;20.10;99.90
7206;DHT22;3644;53.480;10.004;2022-08-25T05:11:09;20.20;99.90
7206;DHT22;3644;53.480;10.004;2022-08-25T05:13:37;20.10;99.90
7206;DHT22;3644;53.480;10.004;2022-08-25T05:16:03;20.20;99.90
7206;DHT22;3644;53.480;10.004;2022-08-25T05:18:30;20.30;99.90
7206;DHT22;3644;53.480;10.004;2022-08-25T05:21:04;20.30;99.90
7206;DHT22;3644;53.480;10.004;2022-08-25T05:23:29;20.30;99.90
7206;DHT22;3644;53.480;10.004;2022-08-25T05:25:59;20.40;99.90
7206;DHT22;3644;53.480;10.004;2022-08-25T05:28:25;20.40;99.90
7206;DHT22;3644;53.480;10.004;2022-08-25T05:30:57;20.30;99.90
7206;DHT22;3644;53.480;10.004;2022-08-25T05:33:23;20.40;99.90
7206;DHT22;3644;53.480;10.004;2022-08-25T05:35:49;20.40;99.90
7206;DHT22;3644;53.480;10.004;2022-08-25T05:38:15;20.40;99.90
7206;DHT22;3644;53.480;10.004;2022-08-25T05:40:40;20.40;99.90
7206;DHT22;3644;53.480;10.004;2022-08-25T05:43:06;20.40;99.90
7206;DHT22;3644;53.480;10.004;2022-08-25T05:45:31;20.40;99.90
7206;DHT22;3644;53.480;10.004;2022-08-25T05:47:57;20.30;99.90
7206;DHT22;3644;53.480;10.004;2022-08-25T05:50:22;20.00;99.90
7206;DHT22;3644;53.480;10.004;2022-08-25T05:52:48;20.10;99.90
7206;DHT22;3644;53.480;10.004;2022-08-25T05:55:13;20.20;99.90
7206;DHT22;3644;53.480;10.004;2022-08-25T05:57:40;20.20;99.90
7206;DHT22;3644;53.480;10.004;2022-08-25T06:00:06;20.30;99.90
7206;DHT22;3644;53.480;10.004;2022-08-25T06:02:32;20.40;99.90
7206;DHT22;3644;53.480;10.004;2022-08-25T06:05:26;20.50;99.90
7206;DHT22;3644;53.480;10.004;2022-08-25T06:07:53;20.60;99.90
7206;DHT22;3644;53.480;10.004;2022-08-25T06:10:20;20.70;99.90
7206;DHT22;3644;53.480;10.004;2022-08-25T06:12:47;20.70;99.90
7206;DHT22;3644;53.480;10.004;2022-08-25T06:15:16;20.70;99.90
7206;DHT22;3644;53.480;10.004;2022-08-25T06:17:42;20.80;99.90
7206;DHT22;3644;53.480;10.004;2022-08-25T06:20:11;20.80;99.90
7206;DHT22;3644;53.480;10.004;2022-08-25T06:22:37;20.70;99.90
7206;DHT22;3644;53.480;10.004;2022-08-25T06:25:07;20.80;99.90
7206;DHT22;3644;53.480;10.004;2022-08-25T06:27:34;20.70;99.90
7206;DHT22;3644;53.480;10.004;2022-08-25T06:30:00;20.60;99.90
7206;DHT22;3644;53.480;10.004;2022-08-25T06:32:33;20.80;99.90
7206;DHT22;3644;53.480;10.004;2022-08-25T06:35:01;20.80;99.90
7206;DHT22;3644;53.480;10.004;2022-08-25T06:37:26;20.80;99.90
7206;DHT22;3644;53.480;10.004;2022-08-25T06:39:52;20.80;99.90
7206;DHT22;3644;53.480;10.004;2022-08-25T06:42:17;20.50;99.90
7206;DHT22;3644;53.480;10.004;2022-08-25T06:44:43;20.40;99.90
7206;DHT22;3644;53.480;10.004;2022-08-25T06:47:09;20.50;99.90
7206;DHT22;3644;53.480;10.004;2022-08-25T06:49:34;20.60;99.90
7206;DHT22;3644;53.480;10.004;2022-08-25T06:52:00;20.80;99.90
7206;DHT22;3644;53.480;10.004;2022-08-25T06:54:26;20.70;99.90
7206;DHT22;3644;53.480;10.004;2022-08-25T06:56:51;20.90;99.90
7206;DHT22;3644;53.480;10.004;2022-08-25T06:59:17;20.90;99.90
7206;DHT22;3644;53.480;10.004;2022-08-25T07:01:43;21.00;99.90
7206;DHT22;3644;53.480;10.004;2022-08-25T07:04:08;21.00;99.90
7206;DHT22;3644;53.480;10.004;2022-08-25T07:06:35;21.10;99.90
7206;DHT22;3644;53.480;10.004;2022-08-25T07:09:02;21.20;99.90
7206;DHT22;3644;53.480;10.004;2022-08-25T07:11:28;21.20;99.90
7206;DHT22;3644;53.480;10.004;2022-08-25T07:14:01;21.40;99.90
7206;DHT22;3644;53.480;10.004;2022-08-25T07:16:29;21.30;99.90
7206;DHT22;3644;53.480;10.004;2022-08-25T07:18:56;21.40;99.90
7206;DHT22;3644;53.480;10.004;2022-08-25T07:21:24;21.40;99.90
7206;DHT22;3644;53.480;10.004;2022-08-25T07:23:50;21.40;99.90
7206;DHT22;3644;53.480;10.004;2022-08-25T07:26:24;21.50;99.90
7206;DHT22;3644;53.480;10.004;2022-08-25T07:28:51;21.50;99.90
7206;DHT22;3644;53.480;10.004;2022-08-25T07:31:16;21.70;99.90
7206;DHT22;3644;53.480;10.004;2022-08-25T07:33:42;21.70;99.90
7206;DHT22;3644;53.480;10.004;2022-08-25T07:36:28;21.60;99.90
7206;DHT22;3644;53.480;10.004;2022-08-25T07:38:55;21.50;99.90
7206;DHT22;3644;53.480;10.004;2022-08-25T07:41:21;21.70;99.90
7206;DHT22;3644;53.480;10.004;2022-08-25T07:43:46;21.80;99.90
7206;DHT22;3644;53.480;10.004;2022-08-25T07:46:12;21.90;99.90
7206;DHT22;3644;53.480;10.004;2022-08-25T07:48:38;22.10;99.90
7206;DHT22;3644;53.480;10.004;2022-08-25T07:51:09;22.30;99.90
7206;DHT22;3644;53.480;10.004;2022-08-25T07:53:35;22.30;99.90
7206;DHT22;3644;53.480;10.004;2022-08-25T07:56:00;22.30;99.90
7206;DHT22;3644;53.480;10.004;2022-08-25T07:58:27;22.40;99.90
7206;DHT22;3644;53.480;10.004;2022-08-25T08:00:53;22.40;99.90
7206;DHT22;3644;53.480;10.004;2022-08-25T08:03:19;22.40;99.90
7206;DHT22;3644;53.480;10.004;2022-08-25T08:05:46;22.60;99.90
7206;DHT22;3644;53.480;10.004;2022-08-25T08:08:12;22.70;99.90
7206;DHT22;3644;53.480;10.004;2022-08-25T08:10:38;22.90;99.90
7206;DHT22;3644;53.480;10.004;2022-08-25T08:13:04;23.00;99.90
7206;DHT22;3644;53.480;10.004;2022-08-25T08:15:30;22.90;99.90
7206;DHT22;3644;53.480;10.004;2022-08-25T08:17:57;22.80;99.90
7206;DHT22;3644;53.480;10.004;2022-08-25T08:20:22;22.90;99.90
7206;DHT22;3644;53.480;10.004;2022-08-25T08:22:48;23.10;99.90
7206;DHT22;3644;53.480;10.004;2022-08-25T08:25:13;23.10;99.90
7206;DHT22;3644;53.480;10.004;2022-08-25T08:27:39;23.20;99.90
7206;DHT22;3644;53.480;10.004;2022-08-25T08:30:07;23.20;99.90
7206;DHT22;3644;53.480;10.004;2022-08-25T08:32:33;23.10;99.90
7206;DHT22;3644;53.480;10.004;2022-08-25T08:34:59;23.10;99.90
7206;DHT22;3644;53.480;10.004;2022-08-25T08:37:24;23.10;99.90
7206;DHT22;3644;53.480;10.004;2022-08-25T08:39:50;23.10;99.90
7206;DHT22;3644;53.480;10.004;2022-08-25T08:42:41;23.20;99.90
7206;DHT22;3644;53.480;10.004;2022-08-25T08:50:40;23.40;99.90
7206;DHT22;3644;53.480;10.004;2022-08-25T08:53:15;23.50;99.90
7206;DHT22;3644;53.480;10.004;2022-08-25T08:55:59;23.60;99.90
7206;DHT22;3644;53.480;10.004;2022-08-25T08:58:41;23.70;99.90
7206;DHT22;3644;53.480;10.004;2022-08-25T09:01:09;23.80;99.90
7206;DHT22;3644;53.480;10.004;2022-08-25T09:03:40;23.80;99.90
7206;DHT22;3644;53.480;10.004;2022-08-25T09:06:30;23.90;99.90
7206;DHT22;3644;53.480;10.004;2022-08-25T09:08:59;23.90;99.90
7206;DHT22;3644;53.480;10.004;2022-08-25T09:20:28;23.70;99.90
7206;DHT22;3644;53.480;10.004;2022-08-25T09:26:06;23.90;99.90
7206;DHT22;3644;53.480;10.004;2022-08-25T09:28:49;24.10;99.90
7206;DHT22;3644;53.480;10.004;2022-08-25T09:31:22;24.40;99.90
7206;DHT22;3644;53.480;10.004;2022-08-25T09:33:49;24.50;99.90
7206;DHT22;3644;53.480;10.004;2022-08-25T09:36:17;24.70;99.90
7206;DHT22;3644;53.480;10.004;2022-08-25T09:38:43;24.90;99.90
7206;DHT22;3644;53.480;10.004;2022-08-25T09:41:08;25.00;99.90
7206;DHT22;3644;53.480;10.004;2022-08-25T09:43:52;25.00;99.90
7206;DHT22;3644;53.480;10.004;2022-08-25T09:46:26;25.00;99.90
7206;DHT22;3644;53.480;10.004;2022-08-25T09:48:57;25.10;99.90
7206;DHT22;3644;53.480;10.004;2022-08-25T09:51:29;24.80;99.90
7206;DHT22;3644;53.480;10.004;2022-08-25T09:56:27;25.10;99.90
7206;DHT22;3644;53.480;10.004;2022-08-25T09:58:55;25.00;99.90
7206;DHT22;3644;53.480;10.004;2022-08-25T10:01:22;24.80;99.90
7206;DHT22;3644;53.480;10.004;2022-08-25T10:04:00;24.90;99.90
7206;DHT22;3644;53.480;10.004;2022-08-25T10:06:49;25.00;99.90
7206;DHT22;3644;53.480;10.004;2022-08-25T10:09:32;25.20;99.90
7206;DHT22;3644;53.480;10.004;2022-08-25T10:12:00;25.20;99.90
7206;DHT22;3644;53.480;10.004;2022-08-25T10:17:34;25.50;99.90
7206;DHT22;3644;53.480;10.004;2022-08-25T10:22:34;25.70;99.90
7206;DHT22;3644;53.480;10.004;2022-08-25T10:25:02;25.80;99.90
7206;DHT22;3644;53.480;10.004;2022-08-25T10:30:32;26.10;99.90
7206;DHT22;3644;53.480;10.004;2022-08-25T10:33:35;26.10;99.90
7206;DHT22;3644;53.480;10.004;2022-08-25T10:36:21;26.30;99.90
7206;DHT22;3644;53.480;10.004;2022-08-25T10:38:56;26.30;99.90
7206;DHT22;3644;53.480;10.004;2022-08-25T10:50:26;26.70;99.90
7206;DHT22;3644;53.480;10.004;2022-08-25T10:54:05;26.60;99.90
7206;DHT22;3644;53.480;10.004;2022-08-25T11:01:46;26.80;99.90
7206;DHT22;3644;53.480;10.004;2022-08-25T11:04:37;26.80;99.90
7206;DHT22;3644;53.480;10.004;2022-08-25T11:07:19;26.90;99.90
7206;DHT22;3644;53.480;10.004;2022-08-25T11:09:49;27.00;99.90
7206;DHT22;3644;53.480;10.004;2022-08-25T11:12:34;27.10;99.90
7206;DHT22;3644;53.480;10.004;2022-08-25T11:15:25;26.90;99.90
7206;DHT22;3644;53.480;10.004;2022-08-25T11:18:06;26.70;99.90
7206;DHT22;3644;53.480;10.004;2022-08-25T11:20:53;26.80;99.90
7206;DHT22;3644;53.480;10.004;2022-08-25T11:23:25;27.10;99.90
7206;DHT22;3644;53.480;10.004;2022-08-25T11:26:02;27.20;99.90
7206;DHT22;3644;53.480;10.004;2022-08-25T11:28:47;27.30;99.90
7206;DHT22;3644;53.480;10.004;2022-08-25T11:31:16;27.40;99.90
7206;DHT22;3644;53.480;10.004;2022-08-25T11:33:43;27.50;99.90
7206;DHT22;3644;53.480;10.004;2022-08-25T11:41:49;27.60;99.90
7206;DHT22;3644;53.480;10.004;2022-08-25T11:44:43;27.90;99.90
7206;DHT22;3644;53.480;10.004;2022-08-25T11:47:28;28.00;99.90
7206;DHT22;3644;53.480;10.004;2022-08-25T11:50:03;28.10;99.90
7206;DHT22;3644;53.480;10.004;2022-08-25T11:55:25;28.30;99.90
7206;DHT22;3644;53.480;10.004;2022-08-25T12:00:40;28.40;99.90
7206;DHT22;3644;53.480;10.004;2022-08-25T12:06:23;28.50;99.90
7206;DHT22;3644;53.480;10.004;2022-08-25T12:09:16;28.50;99.90
7206;DHT22;3644;53.480;10.004;2022-08-25T12:29:58;29.90;99.90
7206;DHT22;3644;53.480;10.004;2022-08-25T12:32:38;30.00;99.90
7206;DHT22;3644;53.480;10.004;2022-08-25T12:45:46;30.40;99.90
7206;DHT22;3644;53.480;10.004;2022-08-25T12:48:39;30.50;99.90
7206;DHT22;3644;53.480;10.004;2022-08-25T12:51:16;30.70;99.90
7206;DHT22;3644;53.480;10.004;2022-08-25T12:53:51;30.70;99.90
7206;DHT22;3644;53.480;10.004;2022-08-25T13:01:47;30.40;99.90
7206;DHT22;3644;53.480;10.004;2022-08-25T13:12:59;31.20;99.90
7206;DHT22;3644;53.480;10.004;2022-08-25T13:18:20;31.50;99.90
7206;DHT22;3644;53.480;10.004;2022-08-25T13:20:48;31.40;99.90
7206;DHT22;3644;53.480;10.004;2022-08-25T13:23:23;31.60;99.90
7206;DHT22;3644;53.480;10.004;2022-08-25T13:25:51;31.50;99.90
7206;DHT22;3644;53.480;10.004;2022-08-25T13:28:25;31.50;99.90
7206;DHT22;3644;53.480;10.004;2022-08-25T13:31:15;31.50;99.90
7206;DHT22;3644;53.480;10.004;2022-08-25T13:36:23;31.60;99.90
7206;DHT22;3644;53.480;10.004;2022-08-25T13:39:16;31.70;99.90
7206;DHT22;3644;53.480;10.004;2022-08-25T13:41:47;31.90;99.90
7206;DHT22;3644;53.480;10.004;2022-08-25T13:44:14;31.80;99.90
7206;DHT22;3644;53.480;10.004;2022-08-25T13:46:41;31.90;99.90
7206;DHT22;3644;53.480;10.004;2022-08-25T13:49:08;31.90;99.90
7206;DHT22;3644;53.480;10.004;2022-08-25T13:51:34;31.90;99.90
7206;DHT22;3644;53.480;10.004;2022-08-25T13:54:05;32.00;99.90
7206;DHT22;3644;53.480;10.004;2022-08-25T13:56:40;32.20;99.90
7206;DHT22;3644;53.480;10.004;2022-08-25T13:59:22;32.20;99.90
7206;DHT22;3644;53.480;10.004;2022-08-25T14:01:48;31.80;99.90
7206;DHT22;3644;53.480;10.004;2022-08-25T14:09:49;32.20;99.90
7206;DHT22;3644;53.480;10.004;2022-08-25T14:12:46;32.10;99.90
7206;DHT22;3644;53.480;10.004;2022-08-25T14:15:27;32.00;99.90
7206;DHT22;3644;53.480;10.004;2022-08-25T14:18:21;31.90;99.90
7206;DHT22;3644;53.480;10.004;2022-08-25T14:20:52;31.90;99.90
7206;DHT22;3644;53.480;10.004;2022-08-25T14:23:21;32.00;99.90
7206;DHT22;3644;53.480;10.004;2022-08-25T14:25:49;32.00;99.90
7206;DHT22;3644;53.480;10.004;2022-08-25T14:28:18;32.00;99.90
7206;DHT22;3644;53.480;10.004;2022-08-25T14:30:49;31.90;99.90
7206;DHT22;3644;53.480;10.004;2022-08-25T14:33:18;32.00;99.90
7206;DHT22;3644;53.480;10.004;2022-08-25T14:35:47;32.10;99.90
7206;DHT22;3644;53.480;10.004;2022-08-25T14:38:14;32.20;99.90
7206;DHT22;3644;53.480;10.004;2022-08-25T14:40:40;32.20;99.90
7206;DHT22;3644;53.480;10.004;2022-08-25T14:43:07;32.20;99.90
7206;DHT22;3644;53.480;10.004;2022-08-25T14:45:35;32.30;99.90
7206;DHT22;3644;53.480;10.004;2022-08-25T14:48:05;32.20;99.90
7206;DHT22;3644;53.480;10.004;2022-08-25T14:50:32;32.30;99.90
7206;DHT22;3644;53.480;10.004;2022-08-25T14:52:57;32.40;99.90
7206;DHT22;3644;53.480;10.004;2022-08-25T14:55:24;32.60;99.90
7206;DHT22;3644;53.480;10.004;2022-08-25T14:57:49;32.70;99.90
7206;DHT22;3644;53.480;10.004;2022-08-25T15:00:15;32.60;99.90
7206;DHT22;3644;53.480;10.004;2022-08-25T15:02:42;32.50;99.90
7206;DHT22;3644;53.480;10.004;2022-08-25T15:05:09;32.50;99.90
7206;DHT22;3644;53.480;10.004;2022-08-25T15:07:37;32.40;99.90
7206;DHT22;3644;53.480;10.004;2022-08-25T15:10:22;32.30;99.90
7206;DHT22;3644;53.480;10.004;2022-08-25T15:12:47;32.30;99.90
7206;DHT22;3644;53.480;10.004;2022-08-25T15:15:14;32.10;99.90
7206;DHT22;3644;53.480;10.004;2022-08-25T15:17:40;32.00;99.90
7206;DHT22;3644;53.480;10.004;2022-08-25T15:20:08;32.00;99.90
7206;DHT22;3644;53.480;10.004;2022-08-25T15:22:34;31.90;99.90
7206;DHT22;3644;53.480;10.004;2022-08-25T15:24:59;31.90;99.90
7206;DHT22;3644;53.480;10.004;2022-08-25T15:27:25;31.90;99.90
7206;DHT22;3644;53.480;10.004;2022-08-25T15:29:50;31.80;99.90
7206;DHT22;3644;53.480;10.004;2022-08-25T15:32:16;31.80;99.90
7206;DHT22;3644;53.480;10.004;2022-08-25T15:34:42;31.90;99.90
7206;DHT22;3644;53.480;10.004;2022-08-25T15:37:12;31.70;99.90
7206;DHT22;3644;53.480;10.004;2022-08-25T15:39:39;31.70;99.90
7206;DHT22;3644;53.480;10.004;2022-08-25T15:42:05;31.80;99.90
7206;DHT22;3644;53.480;10.004;2022-08-25T15:44:31;31.80;99.90
7206;DHT22;3644;53.480;10.004;2022-08-25T15:46:57;31.90;99.90
7206;DHT22;3644;53.480;10.004;2022-08-25T15:49:23;32.00;99.90
7206;DHT22;3644;53.480;10.004;2022-08-25T15:51:51;32.00;99.90
7206;DHT22;3644;53.480;10.004;2022-08-25T15:54:17;31.80;99.90
7206;DHT22;3644;53.480;10.004;2022-08-25T15:56:43;31.80;99.90
7206;DHT22;3644;53.480;10.004;2022-08-25T15:59:08;31.60;99.90
7206;DHT22;3644;53.480;10.004;2022-08-25T16:01:34;31.60;99.90
7206;DHT22;3644;53.480;10.004;2022-08-25T16:04:00;31.50;99.90
7206;DHT22;3644;53.480;10.004;2022-08-25T16:06:26;31.40;99.90
7206;DHT22;3644;53.480;10.004;2022-08-25T16:08:52;31.50;99.90
7206;DHT22;3644;53.480;10.004;2022-08-25T16:11:21;31.50;99.90
7206;DHT22;3644;53.480;10.004;2022-08-25T16:13:48;31.50;99.90
7206;DHT22;3644;53.480;10.004;2022-08-25T16:16:14;31.40;99.90
7206;DHT22;3644;53.480;10.004;2022-08-25T16:18:41;31.40;99.90
7206;DHT22;3644;53.480;10.004;2022-08-25T16:21:12;31.40;99.90
7206;DHT22;3644;53.480;10.004;2022-08-25T16:23:39;31.40;99.90
7206;DHT22;3644;53.480;10.004;2022-08-25T16:26:05;31.40;99.90
7206;DHT22;3644;53.480;10.004;2022-08-25T16:28:33;31.50;99.90
7206;DHT22;3644;53.480;10.004;2022-08-25T16:30:59;31.50;99.90
7206;DHT22;3644;53.480;10.004;2022-08-25T16:33:24;31.40;99.90
7206;DHT22;3644;53.480;10.004;2022-08-25T16:35:50;31.20;99.90
7206;DHT22;3644;53.480;10.004;2022-08-25T16:38:16;31.10;99.90
7206;DHT22;3644;53.480;10.004;2022-08-25T16:40:42;31.10;99.90
7206;DHT22;3644;53.480;10.004;2022-08-25T16:43:09;30.90;99.90
7206;DHT22;3644;53.480;10.004;2022-08-25T16:45:34;30.80;99.90
7206;DHT22;3644;53.480;10.004;2022-08-25T16:48:00;30.70;99.90
7206;DHT22;3644;53.480;10.004;2022-08-25T16:50:26;30.60;99.90
7206;DHT22;3644;53.480;10.004;2022-08-25T16:52:54;30.50;99.90
7206;DHT22;3644;53.480;10.004;2022-08-25T16:55:38;30.50;99.90
7206;DHT22;3644;53.480;10.004;2022-08-25T16:58:04;30.40;99.90
7206;DHT22;3644;53.480;10.004;2022-08-25T17:00:29;30.20;99.90
7206;DHT22;3644;53.480;10.004;2022-08-25T17:03:00;30.10;99.90
7206;DHT22;3644;53.480;10.004;2022-08-25T17:05:28;30.10;99.90
7206;DHT22;3644;53.480;10.004;2022-08-25T17:07:54;30.00;99.90
7206;DHT22;3644;53.480;10.004;2022-08-25T17:10:41;30.00;99.90
7206;DHT22;3644;53.480;10.004;2022-08-25T17:13:07;29.90;99.90
7206;DHT22;3644;53.480;10.004;2022-08-25T17:15:33;29.90;99.90
7206;DHT22;3644;53.480;10.004;2022-08-25T17:17:59;29.70;99.90
7206;DHT22;3644;53.480;10.004;2022-08-25T17:20:24;29.70;99.90
7206;DHT22;3644;53.480;10.004;2022-08-25T17:22:50;29.60;99.90
7206;DHT22;3644;53.480;10.004;2022-08-25T17:25:16;29.50;99.90
7206;DHT22;3644;53.480;10.004;2022-08-25T17:27:41;29.40;99.90
7206;DHT22;3644;53.480;10.004;2022-08-25T17:30:08;29.30;99.90
7206;DHT22;3644;53.480;10.004;2022-08-25T17:32:33;29.30;99.90
7206;DHT22;3644;53.480;10.004;2022-08-25T17:34:59;29.20;99.90
7206;DHT22;3644;53.480;10.004;2022-08-25T17:37:25;29.30;99.90
7206;DHT22;3644;53.480;10.004;2022-08-25T17:39:51;29.20;99.90
7206;DHT22;3644;53.480;10.004;2022-08-25T17:42:17;29.10;99.90
7206;DHT22;3644;53.480;10.004;2022-08-25T17:44:43;29.10;99.90
7206;DHT22;3644;53.480;10.004;2022-08-25T17:47:08;29.00;99.90
7206;DHT22;3644;53.480;10.004;2022-08-25T17:49:34;28.90;99.90
7206;DHT22;3644;53.480;10.004;2022-08-25T17:51:59;28.80;99.90